createdAt,value
2023-03-03T00:01:30.505Z,2.40
2023-03-03T00:03:57.306Z,2.40
2023-03-03T00:06:24.905Z,2.40
2023-03-03T00:08:51.961Z,2.40
2023-03-03T00:11:19.017Z,2.40
2023-03-03T00:13:48.448Z,2.30
2023-03-03T00:16:18.213Z,2.30
2023-03-03T00:18:47.555Z,2.40
2023-03-03T00:21:29.170Z,2.40
2023-03-03T00:24:12.758Z,2.30
2023-03-03T00:26:40.960Z,2.30
2023-03-03T00:29:35.964Z,2.30
2023-03-03T00:32:36.315Z,2.40
2023-03-03T00:35:25.450Z,2.40
2023-03-03T00:37:56.362Z,2.30
2023-03-03T00:40:31.665Z,2.30
2023-03-03T00:43:00.415Z,2.30
2023-03-03T00:45:47.027Z,2.30
2023-03-03T00:48:28.625Z,2.30
2023-03-03T00:51:00.140Z,2.30
2023-03-03T00:53:29.603Z,2.30
2023-03-03T00:55:57.174Z,2.30
2023-03-03T00:58:24.391Z,2.20
2023-03-03T01:00:56.545Z,2.30
2023-03-03T01:03:25.676Z,2.30
2023-03-03T01:05:53.522Z,2.30
2023-03-03T01:08:22.177Z,2.30
2023-03-03T01:10:54.320Z,2.30
2023-03-03T01:13:24.651Z,2.30
2023-03-03T01:15:51.554Z,2.30
2023-03-03T01:18:18.606Z,2.20
2023-03-03T01:20:45.506Z,2.30
2023-03-03T01:23:12.533Z,2.30
2023-03-03T01:25:39.284Z,2.30
2023-03-03T01:28:06.282Z,2.20
2023-03-03T01:30:32.983Z,2.20
2023-03-03T01:32:59.868Z,2.20
2023-03-03T01:35:26.707Z,2.20
2023-03-03T01:37:53.393Z,2.20
2023-03-03T01:40:24.406Z,2.10
2023-03-03T01:42:52.611Z,2.20
2023-03-03T01:45:28.512Z,2.10
2023-03-03T01:48:22.973Z,2.10
2023-03-03T01:50:54.453Z,2.10
2023-03-03T01:53:33.340Z,2.10
2023-03-03T01:56:01.237Z,2.10
2023-03-03T01:59:10.040Z,2.10
2023-03-03T02:01:36.996Z,2.10
2023-03-03T02:04:03.872Z,2.10
2023-03-03T02:06:34.675Z,2.10
2023-03-03T02:09:36.164Z,2.10
2023-03-03T02:12:06.997Z,2.10
2023-03-03T02:14:34.404Z,2.10
2023-03-03T02:17:01.276Z,2.10
2023-03-03T02:19:43.987Z,2.10
2023-03-03T02:22:11.623Z,2.10
2023-03-03T02:24:59.911Z,2.10
2023-03-03T02:27:30.799Z,2.10
2023-03-03T02:29:58.416Z,2.10
2023-03-03T02:32:25.109Z,2.10
2023-03-03T02:34:52.914Z,2.10
2023-03-03T02:37:20.467Z,2.10
2023-03-03T02:39:47.521Z,2.10
2023-03-03T02:42:23.538Z,2.10
2023-03-03T02:44:50.663Z,2.10
2023-03-03T02:47:17.354Z,2.10
2023-03-03T02:49:45.114Z,2.10
2023-03-03T02:52:14.736Z,2.10
2023-03-03T02:54:41.443Z,2.20
2023-03-03T02:57:09.015Z,2.10
2023-03-03T02:59:35.687Z,2.10
2023-03-03T03:02:02.471Z,2.10
2023-03-03T03:04:29.176Z,2.10
2023-03-03T03:06:56.217Z,2.10
2023-03-03T03:09:24.932Z,2.10
2023-03-03T03:11:51.819Z,2.10
2023-03-03T03:14:18.653Z,2.10
2023-03-03T03:16:45.409Z,2.10
2023-03-03T03:19:12.421Z,2.00
2023-03-03T03:21:39.236Z,2.00
2023-03-03T03:24:06.340Z,2.00
2023-03-03T03:26:32.950Z,2.00
2023-03-03T03:28:59.679Z,2.00
2023-03-03T03:31:26.373Z,2.00
2023-03-03T03:33:53.032Z,2.00
2023-03-03T03:36:19.925Z,2.00
2023-03-03T03:38:46.711Z,2.00
2023-03-03T03:41:13.869Z,2.10
2023-03-03T03:43:41.009Z,2.00
2023-03-03T03:46:08.121Z,2.00
2023-03-03T03:48:35.223Z,2.00
2023-03-03T03:51:01.972Z,1.90
2023-03-03T03:53:28.888Z,1.90
2023-03-03T03:55:55.711Z,1.90
2023-03-03T03:58:22.489Z,1.90
2023-03-03T04:00:49.193Z,1.90
2023-03-03T04:03:16.005Z,1.90
2023-03-03T04:05:43.316Z,1.90
2023-03-03T04:08:10.649Z,2.00
2023-03-03T04:10:37.552Z,2.00
2023-03-03T04:13:04.768Z,2.00
2023-03-03T04:15:31.466Z,2.00
2023-03-03T04:17:58.122Z,2.00
2023-03-03T04:20:24.811Z,2.00
2023-03-03T04:22:52.056Z,2.00
2023-03-03T04:25:18.880Z,2.00
2023-03-03T04:27:45.935Z,2.00
2023-03-03T04:30:14.540Z,2.00
2023-03-03T04:32:42.027Z,2.00
2023-03-03T04:35:09.511Z,2.00
2023-03-03T04:37:37.506Z,2.00
2023-03-03T04:40:06.218Z,2.10
2023-03-03T04:42:33.604Z,2.10
2023-03-03T04:45:00.327Z,2.00
2023-03-03T04:47:26.973Z,2.10
2023-03-03T04:49:53.587Z,2.10
2023-03-03T04:52:20.364Z,2.00
2023-03-03T04:54:47.062Z,2.10
2023-03-03T04:57:13.756Z,2.10
2023-03-03T04:59:40.400Z,2.10
2023-03-03T05:02:06.998Z,2.00
2023-03-03T05:04:34.102Z,2.00
2023-03-03T05:07:00.844Z,2.10
2023-03-03T05:09:27.736Z,2.00
2023-03-03T05:11:54.508Z,2.10
2023-03-03T05:14:21.110Z,2.10
2023-03-03T05:16:47.873Z,2.00
2023-03-03T05:19:14.700Z,2.00
2023-03-03T05:21:42.526Z,2.10
2023-03-03T05:24:15.490Z,2.10
2023-03-03T05:26:42.413Z,2.10
2023-03-03T05:29:10.028Z,2.10
2023-03-03T05:31:37.336Z,2.10
2023-03-03T05:34:04.431Z,2.10
2023-03-03T05:36:31.190Z,2.10
2023-03-03T05:38:58.144Z,2.00
2023-03-03T05:41:24.798Z,2.00
2023-03-03T05:43:51.473Z,2.00
2023-03-03T05:46:18.475Z,2.00
2023-03-03T05:48:45.307Z,2.10
2023-03-03T05:51:12.250Z,2.10
2023-03-03T05:53:39.337Z,2.10
2023-03-03T05:56:06.392Z,2.20
2023-03-03T05:58:33.137Z,2.20
2023-03-03T06:00:59.814Z,2.20
2023-03-03T06:03:26.505Z,2.20
2023-03-03T06:05:53.302Z,2.20
2023-03-03T06:08:19.972Z,2.20
2023-03-03T06:10:46.648Z,2.20
2023-03-03T06:13:13.350Z,2.20
2023-03-03T06:15:40.155Z,2.20
2023-03-03T06:18:06.839Z,2.20
2023-03-03T06:20:33.749Z,2.20
2023-03-03T06:23:00.418Z,2.20
2023-03-03T06:25:27.503Z,2.20
2023-03-03T06:27:54.641Z,2.10
2023-03-03T06:30:21.347Z,2.10
2023-03-03T06:32:48.395Z,2.20
2023-03-03T06:35:15.275Z,2.20
2023-03-03T06:37:41.946Z,2.20
2023-03-03T06:40:09.434Z,2.20
2023-03-03T06:42:36.038Z,2.20
2023-03-03T06:45:02.701Z,2.30
2023-03-03T06:47:29.348Z,2.30
2023-03-03T06:49:55.996Z,2.30
2023-03-03T06:52:25.542Z,2.40
2023-03-03T06:54:58.689Z,2.40
2023-03-03T06:57:33.423Z,2.40
2023-03-03T07:00:14.234Z,2.40
2023-03-03T07:02:40.985Z,2.50
2023-03-03T07:05:15.856Z,2.50
2023-03-03T07:07:43.100Z,2.50
2023-03-03T07:10:21.494Z,2.50
2023-03-03T07:12:48.255Z,2.50
2023-03-03T07:15:30.767Z,2.60
2023-03-03T07:18:00.346Z,2.70
2023-03-03T07:20:35.216Z,2.70
2023-03-03T07:23:23.216Z,2.70
2023-03-03T07:25:50.521Z,2.70
2023-03-03T07:28:32.782Z,2.80
2023-03-03T07:30:59.716Z,2.80
2023-03-03T07:33:35.360Z,2.90
2023-03-03T07:36:04.111Z,2.90
2023-03-03T07:38:50.940Z,3.00
2023-03-03T07:41:23.888Z,3.10
2023-03-03T07:43:54.937Z,3.10
2023-03-03T07:46:24.412Z,3.10
2023-03-03T07:48:52.403Z,3.20
2023-03-03T07:51:27.722Z,3.20
2023-03-03T07:54:14.928Z,3.30
2023-03-03T07:56:42.143Z,3.40
2023-03-03T07:59:22.318Z,3.40
2023-03-03T08:01:55.141Z,3.60
2023-03-03T08:04:40.797Z,3.80
2023-03-03T08:07:25.933Z,4.20
2023-03-03T08:09:57.132Z,4.40
2023-03-03T08:12:40.254Z,4.60
2023-03-03T08:15:36.838Z,4.90
2023-03-03T08:18:22.843Z,5.00
2023-03-03T08:20:54.850Z,5.10
2023-03-03T08:23:21.959Z,5.30
2023-03-03T08:25:50.534Z,5.30
2023-03-03T08:28:17.820Z,5.30
2023-03-03T08:30:45.592Z,5.20
2023-03-03T08:33:13.772Z,5.20
2023-03-03T08:35:41.276Z,5.10
2023-03-03T08:38:08.575Z,5.00
2023-03-03T08:40:35.739Z,4.90
2023-03-03T08:43:02.558Z,4.80
2023-03-03T08:45:29.840Z,4.70
2023-03-03T08:47:57.183Z,4.80
2023-03-03T08:50:23.811Z,4.80
2023-03-03T08:52:50.959Z,4.80
2023-03-03T08:55:18.123Z,4.90
2023-03-03T08:57:44.895Z,4.90
2023-03-03T09:00:14.762Z,4.90
2023-03-03T09:02:42.952Z,5.00
2023-03-03T09:05:11.076Z,5.30
2023-03-03T09:07:39.430Z,5.50
2023-03-03T09:10:06.843Z,5.60
2023-03-03T09:12:40.515Z,5.80
2023-03-03T09:15:15.465Z,6.10
2023-03-03T09:17:42.282Z,6.10
2023-03-03T09:20:41.210Z,6.20
2023-03-03T09:23:25.311Z,6.10
2023-03-03T09:25:53.371Z,6.00
2023-03-03T09:28:25.103Z,6.00
2023-03-03T09:30:54.364Z,5.90
2023-03-03T09:33:24.247Z,6.10
2023-03-03T09:36:03.476Z,6.40
2023-03-03T09:38:40.094Z,6.40
2023-03-03T09:41:24.032Z,6.50
2023-03-03T09:44:18.228Z,6.70
2023-03-03T09:46:53.769Z,6.80
2023-03-03T09:49:34.659Z,7.00
2023-03-03T09:52:13.893Z,7.10
2023-03-03T09:55:12.820Z,7.20
2023-03-03T09:58:09.990Z,7.90
2023-03-03T10:00:56.173Z,7.60
2023-03-03T10:03:54.158Z,7.40
2023-03-03T10:06:20.816Z,7.60
2023-03-03T10:09:28.726Z,7.80
2023-03-03T10:12:28.870Z,8.00
2023-03-03T10:14:55.445Z,8.30
2023-03-03T10:17:32.248Z,8.10
2023-03-03T10:20:01.655Z,7.80
2023-03-03T10:22:38.066Z,7.60
2023-03-03T10:25:23.492Z,7.50
2023-03-03T10:28:30.262Z,7.50
2023-03-03T10:31:17.261Z,7.40
2023-03-03T10:33:53.686Z,7.40
2023-03-03T10:36:24.727Z,7.00
2023-03-03T10:39:03.080Z,6.90
2023-03-03T10:41:32.715Z,7.00
2023-03-03T10:44:28.168Z,7.00
2023-03-03T10:47:09.576Z,7.10
2023-03-03T10:49:47.705Z,7.10
2023-03-03T10:52:41.980Z,7.00
2023-03-03T10:55:21.415Z,7.00
2023-03-03T10:58:06.536Z,7.00
2023-03-03T11:00:45.998Z,6.90
2023-03-03T11:03:30.618Z,6.80
2023-03-03T11:06:06.139Z,6.80
2023-03-03T11:08:43.592Z,6.90
2023-03-03T11:11:40.953Z,6.90
2023-03-03T11:14:21.932Z,6.80
2023-03-03T11:17:25.643Z,6.90
2023-03-03T11:20:06.711Z,6.80
2023-03-03T11:22:47.144Z,6.70
2023-03-03T11:25:45.287Z,6.80
2023-03-03T11:28:39.789Z,6.80
2023-03-03T11:31:32.050Z,6.90
2023-03-03T11:34:08.284Z,6.90
2023-03-03T11:36:39.222Z,6.90
2023-03-03T11:39:11.351Z,7.00
2023-03-03T11:41:56.080Z,7.10
2023-03-03T11:44:48.102Z,7.10
2023-03-03T11:47:45.904Z,7.20
2023-03-03T11:50:34.887Z,7.30
2023-03-03T11:53:26.360Z,7.30
2023-03-03T11:56:04.917Z,7.20
2023-03-03T11:59:09.908Z,7.20
2023-03-03T12:02:03.032Z,7.40
2023-03-03T12:04:40.555Z,7.20
2023-03-03T12:07:20.093Z,7.30
2023-03-03T12:10:13.698Z,7.50
2023-03-03T12:12:56.902Z,7.60
2023-03-03T12:15:49.100Z,7.60
2023-03-03T12:18:52.839Z,7.60
2023-03-03T12:21:38.428Z,7.70
2023-03-03T12:24:44.377Z,7.90
2023-03-03T12:27:47.788Z,7.90
2023-03-03T12:30:40.483Z,8.00
2023-03-03T12:33:37.997Z,8.00
2023-03-03T12:36:14.239Z,8.10
2023-03-03T12:38:49.567Z,8.20
2023-03-03T12:41:22.985Z,8.20
2023-03-03T12:44:06.385Z,8.30
2023-03-03T12:46:41.068Z,8.30
2023-03-03T12:49:07.845Z,8.40
2023-03-03T12:52:02.712Z,8.50
2023-03-03T12:54:42.488Z,8.50
2023-03-03T12:57:47.307Z,8.60
2023-03-03T13:00:46.393Z,8.70
2023-03-03T13:03:56.031Z,8.70
2023-03-03T13:07:10.315Z,8.60
2023-03-03T13:10:04.331Z,8.60
2023-03-03T13:12:50.177Z,8.40
2023-03-03T13:15:33.284Z,8.40
2023-03-03T13:18:37.619Z,8.50
2023-03-03T13:21:19.219Z,8.50
2023-03-03T13:24:13.529Z,8.50
2023-03-03T13:26:46.857Z,8.50
2023-03-03T13:29:19.517Z,8.40
2023-03-03T13:31:51.910Z,8.40
2023-03-03T13:34:29.077Z,8.50
2023-03-03T13:37:27.568Z,8.60
2023-03-03T13:39:57.777Z,8.80
2023-03-03T13:42:40.170Z,8.80
2023-03-03T13:45:18.293Z,8.80
2023-03-03T13:48:18.919Z,8.90
2023-03-03T13:50:57.026Z,9.00
2023-03-03T13:53:32.561Z,9.00
2023-03-03T13:56:09.918Z,9.10
2023-03-03T13:59:24.792Z,9.20
2023-03-03T14:02:03.984Z,9.30
2023-03-03T14:04:48.171Z,9.20
2023-03-03T14:07:21.480Z,9.20
2023-03-03T14:10:06.272Z,9.20
2023-03-03T14:12:41.813Z,9.00
2023-03-03T14:15:21.936Z,9.00
2023-03-03T14:18:08.293Z,9.20
2023-03-03T14:20:41.127Z,9.10
2023-03-03T14:23:32.303Z,9.10
2023-03-03T14:26:05.012Z,8.80
2023-03-03T14:29:20.420Z,8.80
2023-03-03T14:31:47.729Z,8.80
2023-03-03T14:34:23.223Z,8.70
2023-03-03T14:36:59.200Z,8.80
2023-03-03T14:39:40.666Z,8.70
2023-03-03T14:42:33.937Z,8.70
2023-03-03T14:45:04.528Z,8.70
2023-03-03T14:47:31.309Z,8.80
2023-03-03T14:50:00.170Z,8.90
2023-03-03T14:52:32.916Z,9.00
2023-03-03T14:55:05.182Z,8.90
2023-03-03T14:57:46.927Z,9.00
2023-03-03T15:00:13.863Z,8.90
2023-03-03T15:02:52.445Z,9.00
2023-03-03T15:05:26.314Z,9.00
2023-03-03T15:08:08.785Z,9.10
2023-03-03T15:10:39.230Z,9.20
2023-03-03T15:13:34.054Z,9.30
2023-03-03T15:16:00.769Z,9.10
2023-03-03T15:18:28.999Z,9.10
2023-03-03T15:21:10.416Z,9.10
2023-03-03T15:23:37.042Z,9.00
2023-03-03T15:26:17.263Z,8.90
2023-03-03T15:28:49.626Z,8.90
2023-03-03T15:31:30.186Z,8.80
2023-03-03T15:34:09.439Z,8.80
2023-03-03T15:36:46.409Z,8.80
2023-03-03T15:39:43.410Z,8.70
2023-03-03T15:42:48.157Z,8.70
2023-03-03T15:45:40.256Z,8.60
2023-03-03T15:48:35.431Z,8.40
2023-03-03T15:51:14.696Z,8.40
2023-03-03T15:54:06.065Z,8.30
2023-03-03T15:57:04.860Z,8.30
2023-03-03T15:59:47.525Z,8.10
2023-03-03T16:02:19.093Z,8.10
2023-03-03T16:05:10.525Z,8.10
2023-03-03T16:07:51.777Z,8.10
2023-03-03T16:10:27.337Z,8.10
2023-03-03T16:12:53.844Z,8.00
2023-03-03T16:15:30.274Z,8.00
2023-03-03T16:18:07.236Z,8.00
2023-03-03T16:20:42.408Z,7.90
2023-03-03T16:23:44.625Z,7.90
2023-03-03T16:26:31.493Z,7.90
2023-03-03T16:29:22.003Z,7.90
2023-03-03T16:32:16.720Z,7.80
2023-03-03T16:34:58.501Z,7.90
2023-03-03T16:37:34.683Z,7.80
2023-03-03T16:40:31.580Z,7.70
2023-03-03T16:43:29.066Z,7.70
2023-03-03T16:46:02.578Z,7.70
2023-03-03T16:48:49.561Z,7.60
2023-03-03T16:52:10.044Z,7.50
2023-03-03T16:54:54.124Z,7.50
2023-03-03T16:57:26.456Z,7.50
2023-03-03T17:00:14.877Z,7.40
2023-03-03T17:02:48.172Z,7.20
2023-03-03T17:05:39.367Z,7.20
2023-03-03T17:08:08.647Z,7.20
2023-03-03T17:10:50.959Z,7.10
2023-03-03T17:13:29.048Z,7.10
2023-03-03T17:16:05.458Z,7.10
2023-03-03T17:18:50.463Z,7.10
2023-03-03T17:21:56.044Z,7.00
2023-03-03T17:24:42.887Z,7.00
2023-03-03T17:27:27.738Z,7.00
2023-03-03T17:30:20.590Z,7.00
2023-03-03T17:33:06.648Z,6.90
2023-03-03T17:36:23.883Z,7.00
2023-03-03T17:39:27.736Z,6.90
2023-03-03T17:41:56.979Z,7.00
2023-03-03T17:45:00.693Z,6.90
2023-03-03T17:47:56.584Z,6.80
2023-03-03T17:50:41.561Z,6.90
2023-03-03T17:53:36.079Z,6.80
2023-03-03T17:56:19.853Z,6.80
2023-03-03T17:59:07.900Z,6.80
2023-03-03T18:02:04.567Z,6.80
2023-03-03T18:04:49.752Z,6.80
2023-03-03T18:07:22.361Z,6.80
2023-03-03T18:10:04.154Z,6.80
2023-03-03T18:13:03.184Z,6.80
2023-03-03T18:16:05.274Z,6.90
2023-03-03T18:18:52.305Z,6.80
2023-03-03T18:21:36.687Z,6.80
2023-03-03T18:24:34.617Z,6.80
2023-03-03T18:27:24.096Z,6.90
2023-03-03T18:30:20.381Z,6.90
2023-03-03T18:32:56.427Z,6.80
2023-03-03T18:35:25.211Z,6.80
2023-03-03T18:37:52.364Z,6.80
2023-03-03T18:40:28.734Z,6.80
2023-03-03T18:42:55.988Z,6.80
2023-03-03T18:45:24.558Z,6.80
2023-03-03T18:48:10.337Z,6.70
2023-03-03T18:50:52.371Z,6.80
2023-03-03T18:53:21.321Z,6.80
2023-03-03T18:55:50.408Z,6.70
2023-03-03T18:58:17.030Z,6.60
2023-03-03T19:01:02.857Z,6.70
2023-03-03T19:03:54.956Z,6.70
2023-03-03T19:06:35.842Z,6.60
2023-03-03T19:09:04.560Z,6.60
2023-03-03T19:11:52.415Z,6.60
2023-03-03T19:14:29.495Z,6.60
2023-03-03T19:16:58.483Z,6.60
2023-03-03T19:19:32.585Z,6.60
2023-03-03T19:22:28.335Z,6.60
2023-03-03T19:25:23.544Z,6.60
2023-03-03T19:28:22.678Z,6.60
2023-03-03T19:30:49.281Z,6.50
2023-03-03T19:33:29.546Z,6.50
2023-03-03T19:36:06.816Z,6.50
2023-03-03T19:38:41.424Z,6.50
2023-03-03T19:41:22.528Z,6.50
2023-03-03T19:44:20.868Z,6.50
2023-03-03T19:47:05.246Z,6.50
2023-03-03T19:49:53.376Z,6.50
2023-03-03T19:52:38.248Z,6.50
2023-03-03T19:55:33.791Z,6.50
2023-03-03T19:58:18.334Z,6.50
2023-03-03T20:01:08.498Z,6.50
2023-03-03T20:04:00.977Z,6.40
2023-03-03T20:07:01.403Z,6.40
2023-03-03T20:09:46.883Z,6.40
2023-03-03T20:12:23.511Z,6.40
2023-03-03T20:15:09.589Z,6.40
2023-03-03T20:17:44.552Z,6.40
2023-03-03T20:20:40.003Z,6.40
2023-03-03T20:23:29.280Z,6.40
2023-03-03T20:26:12.751Z,6.30
2023-03-03T20:28:58.122Z,6.40
2023-03-03T20:31:45.463Z,6.40
2023-03-03T20:34:23.385Z,6.30
2023-03-03T20:37:06.607Z,6.30
2023-03-03T20:40:14.280Z,6.40
2023-03-03T20:43:04.965Z,6.40
2023-03-03T20:45:57.091Z,6.40
2023-03-03T20:48:52.896Z,6.40
2023-03-03T20:52:07.247Z,6.40
2023-03-03T20:54:59.887Z,6.40
2023-03-03T20:57:54.151Z,6.40
2023-03-03T21:00:23.796Z,6.30
2023-03-03T21:03:10.104Z,6.40
2023-03-03T21:05:54.600Z,6.30
2023-03-03T21:08:21.250Z,6.40
2023-03-03T21:10:57.434Z,6.30
2023-03-03T21:13:37.174Z,6.30
2023-03-03T21:16:12.788Z,6.30
2023-03-03T21:18:39.581Z,6.30
2023-03-03T21:21:06.681Z,6.30
2023-03-03T21:23:33.665Z,6.30
2023-03-03T21:26:00.532Z,6.20
2023-03-03T21:28:30.191Z,6.20
2023-03-03T21:31:09.144Z,6.30
2023-03-03T21:33:42.720Z,6.30
2023-03-03T21:36:32.153Z,6.30
2023-03-03T21:39:02.003Z,6.30
2023-03-03T21:41:48.631Z,6.30
2023-03-03T21:44:38.163Z,6.30
2023-03-03T21:47:06.731Z,6.30
2023-03-03T21:49:33.523Z,6.20
2023-03-03T21:52:00.529Z,6.20
2023-03-03T21:54:27.588Z,6.20
2023-03-03T21:56:54.270Z,6.20
2023-03-03T21:59:21.089Z,6.20
2023-03-03T22:01:48.063Z,6.20
2023-03-03T22:04:15.005Z,6.30
2023-03-03T22:06:41.759Z,6.20
2023-03-03T22:09:08.977Z,6.20
2023-03-03T22:11:35.691Z,6.30
2023-03-03T22:14:02.404Z,6.30
2023-03-03T22:16:29.042Z,6.30
2023-03-03T22:18:55.699Z,6.20
2023-03-03T22:21:22.448Z,6.20
2023-03-03T22:23:49.082Z,6.20
2023-03-03T22:26:15.850Z,6.20
2023-03-03T22:28:44.348Z,6.20
2023-03-03T22:31:11.422Z,6.20
2023-03-03T22:33:38.102Z,6.20
2023-03-03T22:36:05.216Z,6.30
2023-03-03T22:38:31.936Z,6.20
2023-03-03T22:40:59.385Z,6.20
2023-03-03T22:43:27.326Z,6.20
2023-03-03T22:45:54.089Z,6.20
2023-03-03T22:48:20.916Z,6.20
2023-03-03T22:50:47.621Z,6.20
2023-03-03T22:53:14.248Z,6.20
2023-03-03T22:55:40.961Z,6.10
2023-03-03T22:58:09.570Z,6.10
2023-03-03T23:00:39.214Z,6.20
2023-03-03T23:03:07.867Z,6.20
2023-03-03T23:05:35.776Z,6.20
2023-03-03T23:08:04.022Z,6.20
2023-03-03T23:10:30.662Z,6.10
2023-03-03T23:12:57.255Z,6.10
2023-03-03T23:15:24.788Z,6.10
2023-03-03T23:17:51.580Z,6.10
2023-03-03T23:20:22.496Z,6.10
2023-03-03T23:22:49.194Z,6.20
2023-03-03T23:25:16.221Z,6.10
2023-03-03T23:27:43.910Z,6.10
2023-03-03T23:30:13.103Z,6.10
2023-03-03T23:32:40.250Z,6.10
2023-03-03T23:35:07.493Z,6.10
2023-03-03T23:37:34.364Z,6.10
2023-03-03T23:40:01.253Z,6.10
2023-03-03T23:42:28.092Z,6.10
2023-03-03T23:44:54.719Z,6.10
2023-03-03T23:47:21.329Z,6.10
2023-03-03T23:49:48.016Z,6.10
2023-03-03T23:52:14.912Z,6.10
2023-03-03T23:54:41.523Z,6.10
2023-03-03T23:57:08.809Z,6.10
2023-03-03T23:59:35.914Z,6.10
